sensor_id;sensor_type;location;lat;lon;timestamp;pressure;altitude;pressure_sealevel;temperature;humidity
73106;BME280;61559;50.476;15.588;2023-07-02T00:01:07;96618.70;;;18.58;59.86
73106;BME280;61559;50.476;15.588;2023-07-02T00:03:58;96616.19;;;18.62;59.65
73106;BME280;61559;50.476;15.588;2023-07-02T00:06:30;96614.68;;;18.63;59.66
73106;BME280;61559;50.476;15.588;2023-07-02T00:09:02;96616.63;;;18.64;59.28
73106;BME280;61559;50.476;15.588;2023-07-02T00:11:34;96617.22;;;18.65;59.42
73106;BME280;61559;50.476;15.588;2023-07-02T00:14:05;96616.91;;;18.65;59.27
73106;BME280;61559;50.476;15.588;2023-07-02T00:16:39;96619.38;;;18.65;59.43
73106;BME280;61559;50.476;15.588;2023-07-02T00:19:11;96617.73;;;18.64;59.86
73106;BME280;61559;50.476;15.588;2023-07-02T00:21:42;96623.78;;;18.60;59.83
73106;BME280;61559;50.476;15.588;2023-07-02T00:24:13;96622.15;;;18.55;60.42
73106;BME280;61559;50.476;15.588;2023-07-02T00:26:45;96621.94;;;18.51;60.53
73106;BME280;61559;50.476;15.588;2023-07-02T00:29:16;96624.72;;;18.45;60.78
73106;BME280;61559;50.476;15.588;2023-07-02T00:31:48;96626.75;;;18.39;61.04
73106;BME280;61559;50.476;15.588;2023-07-02T00:34:19;96624.67;;;18.33;61.30
73106;BME280;61559;50.476;15.588;2023-07-02T00:36:50;96622.77;;;18.26;61.71
73106;BME280;61559;50.476;15.588;2023-07-02T00:39:22;96619.52;;;18.20;61.77
73106;BME280;61559;50.476;15.588;2023-07-02T00:41:53;96618.42;;;18.16;62.31
73106;BME280;61559;50.476;15.588;2023-07-02T00:44:24;96623.80;;;18.13;62.79
73106;BME280;61559;50.476;15.588;2023-07-02T00:46:56;96624.77;;;18.09;62.88
73106;BME280;61559;50.476;15.588;2023-07-02T00:49:28;96620.98;;;18.04;62.90
73106;BME280;61559;50.476;15.588;2023-07-02T00:52:00;96614.60;;;17.98;62.85
73106;BME280;61559;50.476;15.588;2023-07-02T00:54:32;96621.46;;;17.92;63.19
73106;BME280;61559;50.476;15.588;2023-07-02T00:57:04;96619.97;;;17.86;63.44
73106;BME280;61559;50.476;15.588;2023-07-02T00:59:35;96621.69;;;17.82;63.45
73106;BME280;61559;50.476;15.588;2023-07-02T01:02:08;96626.25;;;17.77;63.69
73106;BME280;61559;50.476;15.588;2023-07-02T01:04:41;96629.07;;;17.73;64.31
73106;BME280;61559;50.476;15.588;2023-07-02T01:07:12;96628.17;;;17.68;64.88
73106;BME280;61559;50.476;15.588;2023-07-02T01:09:44;96628.98;;;17.66;64.82
73106;BME280;61559;50.476;15.588;2023-07-02T01:12:17;96625.77;;;17.63;64.89
73106;BME280;61559;50.476;15.588;2023-07-02T01:14:53;96622.64;;;17.60;64.84
73106;BME280;61559;50.476;15.588;2023-07-02T01:17:27;96622.58;;;17.58;64.91
73106;BME280;61559;50.476;15.588;2023-07-02T01:20:09;96620.27;;;17.56;64.91
73106;BME280;61559;50.476;15.588;2023-07-02T01:22:42;96620.48;;;17.55;65.10
73106;BME280;61559;50.476;15.588;2023-07-02T01:25:14;96619.15;;;17.55;65.17
73106;BME280;61559;50.476;15.588;2023-07-02T01:27:46;96621.54;;;17.56;65.16
73106;BME280;61559;50.476;15.588;2023-07-02T01:30:17;96624.95;;;17.57;64.92
73106;BME280;61559;50.476;15.588;2023-07-02T01:32:48;96629.86;;;17.58;65.72
73106;BME280;61559;50.476;15.588;2023-07-02T01:35:20;96629.49;;;17.59;65.55
73106;BME280;61559;50.476;15.588;2023-07-02T01:37:51;96633.80;;;17.61;65.66
73106;BME280;61559;50.476;15.588;2023-07-02T01:40:23;96628.45;;;17.62;65.74
73106;BME280;61559;50.476;15.588;2023-07-02T01:42:55;96637.67;;;17.62;66.36
73106;BME280;61559;50.476;15.588;2023-07-02T01:45:26;96641.27;;;17.65;66.83
73106;BME280;61559;50.476;15.588;2023-07-02T01:47:57;96639.86;;;17.67;67.55
73106;BME280;61559;50.476;15.588;2023-07-02T01:50:29;96642.25;;;17.68;67.49
73106;BME280;61559;50.476;15.588;2023-07-02T01:53:00;96642.91;;;17.70;67.94
73106;BME280;61559;50.476;15.588;2023-07-02T01:55:31;96646.63;;;17.71;68.42
73106;BME280;61559;50.476;15.588;2023-07-02T01:58:02;96644.02;;;17.69;69.03
73106;BME280;61559;50.476;15.588;2023-07-02T02:00:34;96642.47;;;17.67;69.35
73106;BME280;61559;50.476;15.588;2023-07-02T02:03:07;96646.45;;;17.63;70.11
73106;BME280;61559;50.476;15.588;2023-07-02T02:05:38;96648.16;;;17.58;70.51
73106;BME280;61559;50.476;15.588;2023-07-02T02:08:09;96653.97;;;17.55;70.39
73106;BME280;61559;50.476;15.588;2023-07-02T02:10:41;96657.38;;;17.52;71.10
73106;BME280;61559;50.476;15.588;2023-07-02T02:13:12;96650.46;;;17.48;70.95
73106;BME280;61559;50.476;15.588;2023-07-02T02:15:44;96647.71;;;17.46;71.07
73106;BME280;61559;50.476;15.588;2023-07-02T02:18:15;96648.83;;;17.44;71.21
73106;BME280;61559;50.476;15.588;2023-07-02T02:20:48;96647.70;;;17.45;71.41
73106;BME280;61559;50.476;15.588;2023-07-02T02:23:19;96650.69;;;17.42;71.79
73106;BME280;61559;50.476;15.588;2023-07-02T02:25:50;96650.16;;;17.40;71.75
73106;BME280;61559;50.476;15.588;2023-07-02T02:28:21;96653.66;;;17.39;71.87
73106;BME280;61559;50.476;15.588;2023-07-02T02:30:54;96656.26;;;17.39;71.84
73106;BME280;61559;50.476;15.588;2023-07-02T02:33:25;96652.33;;;17.39;71.88
73106;BME280;61559;50.476;15.588;2023-07-02T02:35:56;96648.90;;;17.41;71.80
73106;BME280;61559;50.476;15.588;2023-07-02T02:38:28;96649.94;;;17.40;72.04
73106;BME280;61559;50.476;15.588;2023-07-02T02:40:59;96649.71;;;17.40;71.96
73106;BME280;61559;50.476;15.588;2023-07-02T02:43:31;96652.55;;;17.40;72.23
73106;BME280;61559;50.476;15.588;2023-07-02T02:46:02;96654.84;;;17.40;72.37
73106;BME280;61559;50.476;15.588;2023-07-02T02:48:34;96655.74;;;17.39;72.80
73106;BME280;61559;50.476;15.588;2023-07-02T02:51:05;96656.48;;;17.37;73.01
73106;BME280;61559;50.476;15.588;2023-07-02T02:53:36;96657.60;;;17.34;72.97
73106;BME280;61559;50.476;15.588;2023-07-02T02:56:07;96658.42;;;17.30;73.27
73106;BME280;61559;50.476;15.588;2023-07-02T02:58:39;96655.45;;;17.26;73.74
73106;BME280;61559;50.476;15.588;2023-07-02T03:01:10;96661.55;;;17.24;73.65
73106;BME280;61559;50.476;15.588;2023-07-02T03:03:42;96665.11;;;17.21;73.73
73106;BME280;61559;50.476;15.588;2023-07-02T03:06:16;96666.30;;;17.19;73.90
73106;BME280;61559;50.476;15.588;2023-07-02T03:08:47;96670.68;;;17.17;74.02
73106;BME280;61559;50.476;15.588;2023-07-02T03:11:19;96672.39;;;17.15;74.11
73106;BME280;61559;50.476;15.588;2023-07-02T03:13:50;96672.45;;;17.14;74.67
73106;BME280;61559;50.476;15.588;2023-07-02T03:16:21;96673.92;;;17.08;75.00
73106;BME280;61559;50.476;15.588;2023-07-02T03:18:53;96676.88;;;17.02;75.36
73106;BME280;61559;50.476;15.588;2023-07-02T03:21:24;96680.81;;;16.97;75.52
73106;BME280;61559;50.476;15.588;2023-07-02T03:23:56;96685.47;;;16.93;76.05
73106;BME280;61559;50.476;15.588;2023-07-02T03:26:27;96685.02;;;16.87;76.35
73106;BME280;61559;50.476;15.588;2023-07-02T03:28:58;96691.08;;;16.82;77.03
73106;BME280;61559;50.476;15.588;2023-07-02T03:31:30;96693.21;;;16.76;76.97
73106;BME280;61559;50.476;15.588;2023-07-02T03:34:03;96696.69;;;16.72;77.42
73106;BME280;61559;50.476;15.588;2023-07-02T03:36:35;96697.78;;;16.67;77.95
73106;BME280;61559;50.476;15.588;2023-07-02T03:39:06;96698.71;;;16.64;77.77
73106;BME280;61559;50.476;15.588;2023-07-02T03:41:40;96694.09;;;16.62;77.98
73106;BME280;61559;50.476;15.588;2023-07-02T03:44:11;96693.41;;;16.61;78.23
73106;BME280;61559;50.476;15.588;2023-07-02T03:46:42;96694.59;;;16.58;78.44
73106;BME280;61559;50.476;15.588;2023-07-02T03:49:14;96696.95;;;16.53;78.64
73106;BME280;61559;50.476;15.588;2023-07-02T03:51:46;96697.30;;;16.52;78.56
73106;BME280;61559;50.476;15.588;2023-07-02T03:54:17;96692.27;;;16.53;78.80
73106;BME280;61559;50.476;15.588;2023-07-02T03:56:48;96691.01;;;16.55;78.80
73106;BME280;61559;50.476;15.588;2023-07-02T03:59:20;96691.38;;;16.55;79.00
73106;BME280;61559;50.476;15.588;2023-07-02T04:01:51;96693.91;;;16.55;79.20
73106;BME280;61559;50.476;15.588;2023-07-02T04:04:23;96697.25;;;16.56;79.21
73106;BME280;61559;50.476;15.588;2023-07-02T04:06:54;96696.58;;;16.54;79.34
73106;BME280;61559;50.476;15.588;2023-07-02T04:09:25;96701.32;;;16.53;79.60
73106;BME280;61559;50.476;15.588;2023-07-02T04:11:57;96699.30;;;16.52;80.16
73106;BME280;61559;50.476;15.588;2023-07-02T04:14:28;96700.27;;;16.48;80.54
73106;BME280;61559;50.476;15.588;2023-07-02T04:17:00;96708.52;;;16.45;80.78
73106;BME280;61559;50.476;15.588;2023-07-02T04:19:33;96703.69;;;16.46;80.46
73106;BME280;61559;50.476;15.588;2023-07-02T04:22:04;96707.09;;;16.47;80.82
73106;BME280;61559;50.476;15.588;2023-07-02T04:24:36;96710.36;;;16.50;80.68
73106;BME280;61559;50.476;15.588;2023-07-02T04:27:08;96714.52;;;16.50;80.73
73106;BME280;61559;50.476;15.588;2023-07-02T04:29:59;96713.41;;;16.50;80.65
73106;BME280;61559;50.476;15.588;2023-07-02T04:32:31;96713.13;;;16.53;80.57
73106;BME280;61559;50.476;15.588;2023-07-02T04:35:03;96714.20;;;16.57;80.64
73106;BME280;61559;50.476;15.588;2023-07-02T04:37:35;96713.27;;;16.63;80.60
73106;BME280;61559;50.476;15.588;2023-07-02T04:40:08;96716.44;;;16.70;80.57
73106;BME280;61559;50.476;15.588;2023-07-02T04:42:41;96717.08;;;16.79;80.49
73106;BME280;61559;50.476;15.588;2023-07-02T04:45:16;96722.64;;;16.92;80.45
73106;BME280;61559;50.476;15.588;2023-07-02T04:47:48;96727.20;;;17.04;80.19
73106;BME280;61559;50.476;15.588;2023-07-02T04:50:19;96733.84;;;17.09;80.12
73106;BME280;61559;50.476;15.588;2023-07-02T04:52:51;96734.00;;;17.11;80.05
73106;BME280;61559;50.476;15.588;2023-07-02T04:55:22;96734.73;;;17.10;80.06
73106;BME280;61559;50.476;15.588;2023-07-02T04:57:53;96735.33;;;17.09;79.74
73106;BME280;61559;50.476;15.588;2023-07-02T05:00:25;96738.15;;;17.10;79.75
73106;BME280;61559;50.476;15.588;2023-07-02T05:02:56;96739.12;;;17.11;79.80
73106;BME280;61559;50.476;15.588;2023-07-02T05:05:28;96742.63;;;17.13;79.67
73106;BME280;61559;50.476;15.588;2023-07-02T05:07:59;96740.25;;;17.15;79.58
73106;BME280;61559;50.476;15.588;2023-07-02T05:10:30;96742.48;;;17.13;79.66
73106;BME280;61559;50.476;15.588;2023-07-02T05:13:01;96743.81;;;17.12;79.47
73106;BME280;61559;50.476;15.588;2023-07-02T05:15:33;96741.96;;;17.12;79.52
73106;BME280;61559;50.476;15.588;2023-07-02T05:18:04;96741.36;;;17.14;79.61
73106;BME280;61559;50.476;15.588;2023-07-02T05:20:37;96738.17;;;17.15;79.51
73106;BME280;61559;50.476;15.588;2023-07-02T05:23:08;96730.00;;;17.17;79.52
73106;BME280;61559;50.476;15.588;2023-07-02T05:25:39;96735.58;;;17.19;79.59
73106;BME280;61559;50.476;15.588;2023-07-02T05:28:11;96733.43;;;17.22;79.53
73106;BME280;61559;50.476;15.588;2023-07-02T05:30:42;96738.88;;;17.24;79.25
73106;BME280;61559;50.476;15.588;2023-07-02T05:33:13;96737.84;;;17.28;79.38
73106;BME280;61559;50.476;15.588;2023-07-02T05:35:45;96740.88;;;17.34;79.39
73106;BME280;61559;50.476;15.588;2023-07-02T05:38:17;96733.91;;;17.42;79.27
73106;BME280;61559;50.476;15.588;2023-07-02T05:40:48;96739.65;;;17.52;79.16
73106;BME280;61559;50.476;15.588;2023-07-02T05:43:20;96740.48;;;17.56;78.78
73106;BME280;61559;50.476;15.588;2023-07-02T05:45:52;96744.59;;;17.62;78.86
73106;BME280;61559;50.476;15.588;2023-07-02T05:48:23;96749.14;;;17.65;78.57
73106;BME280;61559;50.476;15.588;2023-07-02T05:50:55;96746.85;;;17.67;78.68
73106;BME280;61559;50.476;15.588;2023-07-02T05:53:26;96749.46;;;17.69;78.67
73106;BME280;61559;50.476;15.588;2023-07-02T05:55:57;96753.11;;;17.72;78.44
73106;BME280;61559;50.476;15.588;2023-07-02T05:58:29;96750.88;;;17.77;78.30
73106;BME280;61559;50.476;15.588;2023-07-02T06:01:17;96751.41;;;17.83;77.97
73106;BME280;61559;50.476;15.588;2023-07-02T06:03:50;96749.11;;;17.86;78.04
73106;BME280;61559;50.476;15.588;2023-07-02T06:06:22;96753.20;;;17.94;77.83
73106;BME280;61559;50.476;15.588;2023-07-02T06:08:54;96752.61;;;17.96;77.52
73106;BME280;61559;50.476;15.588;2023-07-02T06:11:25;96749.94;;;17.98;77.42
73106;BME280;61559;50.476;15.588;2023-07-02T06:13:57;96746.21;;;18.04;77.33
73106;BME280;61559;50.476;15.588;2023-07-02T06:16:28;96754.92;;;18.09;76.98
73106;BME280;61559;50.476;15.588;2023-07-02T06:19:00;96753.28;;;18.14;76.82
73106;BME280;61559;50.476;15.588;2023-07-02T06:21:31;96755.73;;;18.13;76.63
73106;BME280;61559;50.476;15.588;2023-07-02T06:24:03;96754.48;;;18.14;76.73
73106;BME280;61559;50.476;15.588;2023-07-02T06:26:34;96758.39;;;18.20;76.74
73106;BME280;61559;50.476;15.588;2023-07-02T06:29:05;96758.45;;;18.25;76.64
73106;BME280;61559;50.476;15.588;2023-07-02T06:31:36;96756.06;;;18.36;76.43
73106;BME280;61559;50.476;15.588;2023-07-02T06:34:08;96758.05;;;18.52;76.29
73106;BME280;61559;50.476;15.588;2023-07-02T06:36:40;96757.83;;;18.62;75.52
73106;BME280;61559;50.476;15.588;2023-07-02T06:39:11;96754.76;;;18.76;75.26
73106;BME280;61559;50.476;15.588;2023-07-02T06:41:43;96753.61;;;18.84;74.69
73106;BME280;61559;50.476;15.588;2023-07-02T06:44:14;96744.44;;;18.87;74.77
73106;BME280;61559;50.476;15.588;2023-07-02T06:46:48;96744.40;;;18.95;74.23
73106;BME280;61559;50.476;15.588;2023-07-02T06:49:20;96748.08;;;19.07;74.58
73106;BME280;61559;50.476;15.588;2023-07-02T06:51:51;96747.46;;;19.22;73.74
73106;BME280;61559;50.476;15.588;2023-07-02T06:54:23;96753.92;;;19.29;72.73
73106;BME280;61559;50.476;15.588;2023-07-02T06:56:55;96755.70;;;19.30;72.44
73106;BME280;61559;50.476;15.588;2023-07-02T06:59:26;96750.80;;;19.28;71.75
73106;BME280;61559;50.476;15.588;2023-07-02T07:01:57;96751.05;;;19.21;71.18
73106;BME280;61559;50.476;15.588;2023-07-02T07:04:29;96751.45;;;19.15;71.76
73106;BME280;61559;50.476;15.588;2023-07-02T07:07:00;96746.70;;;19.10;72.20
73106;BME280;61559;50.476;15.588;2023-07-02T07:09:33;96745.31;;;19.06;72.15
73106;BME280;61559;50.476;15.588;2023-07-02T07:12:05;96749.52;;;19.02;72.38
73106;BME280;61559;50.476;15.588;2023-07-02T07:14:36;96752.73;;;19.00;72.61
73106;BME280;61559;50.476;15.588;2023-07-02T07:17:07;96750.42;;;19.02;72.83
73106;BME280;61559;50.476;15.588;2023-07-02T07:19:39;96753.02;;;19.05;72.94
73106;BME280;61559;50.476;15.588;2023-07-02T07:22:10;96749.52;;;19.05;72.82
73106;BME280;61559;50.476;15.588;2023-07-02T07:24:42;96755.86;;;19.01;72.89
73106;BME280;61559;50.476;15.588;2023-07-02T07:27:14;96758.72;;;18.94;73.02
73106;BME280;61559;50.476;15.588;2023-07-02T07:29:45;96757.77;;;18.90;73.59
73106;BME280;61559;50.476;15.588;2023-07-02T07:32:16;96755.09;;;18.87;73.94
73106;BME280;61559;50.476;15.588;2023-07-02T07:34:48;96753.23;;;18.87;74.24
73106;BME280;61559;50.476;15.588;2023-07-02T07:37:19;96761.80;;;18.88;73.71
73106;BME280;61559;50.476;15.588;2023-07-02T07:39:51;96767.75;;;18.91;73.51
73106;BME280;61559;50.476;15.588;2023-07-02T07:42:22;96770.71;;;18.97;73.06
73106;BME280;61559;50.476;15.588;2023-07-02T07:44:53;96774.42;;;19.04;72.94
73106;BME280;61559;50.476;15.588;2023-07-02T07:47:24;96777.05;;;19.14;73.21
73106;BME280;61559;50.476;15.588;2023-07-02T07:49:56;96776.18;;;19.21;73.09
73106;BME280;61559;50.476;15.588;2023-07-02T07:52:27;96781.91;;;19.24;72.39
73106;BME280;61559;50.476;15.588;2023-07-02T07:54:58;96784.92;;;19.19;71.90
73106;BME280;61559;50.476;15.588;2023-07-02T07:57:31;96780.84;;;19.16;71.71
73106;BME280;61559;50.476;15.588;2023-07-02T08:00:02;96788.23;;;19.13;71.37
73106;BME280;61559;50.476;15.588;2023-07-02T08:02:35;96790.61;;;19.14;71.71
73106;BME280;61559;50.476;15.588;2023-07-02T08:05:07;96790.62;;;19.32;71.89
73106;BME280;61559;50.476;15.588;2023-07-02T08:07:40;96788.23;;;19.46;70.94
73106;BME280;61559;50.476;15.588;2023-07-02T08:10:11;96786.88;;;19.51;69.74
73106;BME280;61559;50.476;15.588;2023-07-02T08:12:43;96780.46;;;19.52;69.92
73106;BME280;61559;50.476;15.588;2023-07-02T08:15:15;96785.91;;;19.50;69.20
73106;BME280;61559;50.476;15.588;2023-07-02T08:17:46;96787.56;;;19.46;69.23
73106;BME280;61559;50.476;15.588;2023-07-02T08:20:18;96790.95;;;19.38;68.32
73106;BME280;61559;50.476;15.588;2023-07-02T08:22:49;96797.20;;;19.27;68.44
73106;BME280;61559;50.476;15.588;2023-07-02T08:25:23;96789.39;;;19.18;68.68
73106;BME280;61559;50.476;15.588;2023-07-02T08:27:56;96790.46;;;19.14;69.47
73106;BME280;61559;50.476;15.588;2023-07-02T08:30:28;96805.80;;;19.05;70.96
73106;BME280;61559;50.476;15.588;2023-07-02T08:32:59;96830.61;;;18.82;71.95
73106;BME280;61559;50.476;15.588;2023-07-02T08:35:30;96850.59;;;18.44;71.21
73106;BME280;61559;50.476;15.588;2023-07-02T08:38:01;96854.38;;;18.01;71.56
73106;BME280;61559;50.476;15.588;2023-07-02T08:40:33;96854.11;;;17.60;72.95
73106;BME280;61559;50.476;15.588;2023-07-02T08:43:04;96865.02;;;17.20;73.77
73106;BME280;61559;50.476;15.588;2023-07-02T08:45:36;96859.66;;;16.91;75.00
73106;BME280;61559;50.476;15.588;2023-07-02T08:48:07;96861.28;;;16.68;76.05
73106;BME280;61559;50.476;15.588;2023-07-02T08:50:39;96860.98;;;16.50;76.80
73106;BME280;61559;50.476;15.588;2023-07-02T08:53:10;96865.10;;;16.42;77.56
73106;BME280;61559;50.476;15.588;2023-07-02T08:55:42;96868.35;;;16.39;77.97
73106;BME280;61559;50.476;15.588;2023-07-02T08:58:14;96868.58;;;16.38;78.30
73106;BME280;61559;50.476;15.588;2023-07-02T09:01:05;96867.17;;;16.40;78.63
73106;BME280;61559;50.476;15.588;2023-07-02T09:03:37;96864.36;;;16.43;78.64
73106;BME280;61559;50.476;15.588;2023-07-02T09:06:09;96862.83;;;16.47;78.73
73106;BME280;61559;50.476;15.588;2023-07-02T09:08:42;96862.40;;;16.51;78.19
73106;BME280;61559;50.476;15.588;2023-07-02T09:11:14;96866.77;;;16.58;78.50
73106;BME280;61559;50.476;15.588;2023-07-02T09:13:50;96869.69;;;16.68;78.53
73106;BME280;61559;50.476;15.588;2023-07-02T09:16:27;96873.02;;;16.78;78.03
73106;BME280;61559;50.476;15.588;2023-07-02T09:19:03;96878.27;;;16.85;77.59
73106;BME280;61559;50.476;15.588;2023-07-02T09:21:43;96876.90;;;16.90;77.39
73106;BME280;61559;50.476;15.588;2023-07-02T09:24:19;96874.95;;;16.99;76.98
73106;BME280;61559;50.476;15.588;2023-07-02T09:26:52;96875.23;;;17.08;76.65
73106;BME280;61559;50.476;15.588;2023-07-02T09:29:25;96875.23;;;17.22;77.10
73106;BME280;61559;50.476;15.588;2023-07-02T09:32:00;96877.73;;;17.36;76.60
73106;BME280;61559;50.476;15.588;2023-07-02T09:34:40;96875.29;;;17.55;76.68
73106;BME280;61559;50.476;15.588;2023-07-02T09:37:12;96876.20;;;17.73;76.30
73106;BME280;61559;50.476;15.588;2023-07-02T09:39:44;96880.86;;;17.91;76.11
73106;BME280;61559;50.476;15.588;2023-07-02T09:42:22;96876.43;;;18.08;75.88
73106;BME280;61559;50.476;15.588;2023-07-02T09:44:59;96881.80;;;18.16;74.50
73106;BME280;61559;50.476;15.588;2023-07-02T09:47:32;96879.35;;;18.16;74.62
73106;BME280;61559;50.476;15.588;2023-07-02T09:50:07;96883.13;;;18.22;74.87
73106;BME280;61559;50.476;15.588;2023-07-02T09:52:39;96883.05;;;18.23;72.90
73106;BME280;61559;50.476;15.588;2023-07-02T09:55:11;96883.50;;;18.22;72.88
73106;BME280;61559;50.476;15.588;2023-07-02T09:57:44;96884.02;;;18.22;73.27
73106;BME280;61559;50.476;15.588;2023-07-02T10:00:17;96880.47;;;18.15;71.43
73106;BME280;61559;50.476;15.588;2023-07-02T10:02:51;96880.83;;;18.08;71.95
73106;BME280;61559;50.476;15.588;2023-07-02T10:05:32;96878.29;;;18.07;72.81
73106;BME280;61559;50.476;15.588;2023-07-02T10:08:15;96878.52;;;18.13;73.05
73106;BME280;61559;50.476;15.588;2023-07-02T10:10:48;96877.79;;;18.18;70.61
73106;BME280;61559;50.476;15.588;2023-07-02T10:13:29;96879.73;;;18.17;70.50
73106;BME280;61559;50.476;15.588;2023-07-02T10:16:04;96873.68;;;18.19;70.89
73106;BME280;61559;50.476;15.588;2023-07-02T10:18:36;96872.27;;;18.27;71.57
73106;BME280;61559;50.476;15.588;2023-07-02T10:21:17;96872.71;;;18.35;70.78
73106;BME280;61559;50.476;15.588;2023-07-02T10:23:48;96871.67;;;18.44;69.91
73106;BME280;61559;50.476;15.588;2023-07-02T10:26:20;96868.25;;;18.51;69.85
73106;BME280;61559;50.476;15.588;2023-07-02T10:29:00;96860.59;;;18.62;69.90
73106;BME280;61559;50.476;15.588;2023-07-02T10:31:35;96860.52;;;18.75;66.60
73106;BME280;61559;50.476;15.588;2023-07-02T10:34:06;96866.77;;;18.86;65.31
73106;BME280;61559;50.476;15.588;2023-07-02T10:36:40;96874.58;;;18.96;64.56
73106;BME280;61559;50.476;15.588;2023-07-02T10:39:13;96859.05;;;19.02;64.58
73106;BME280;61559;50.476;15.588;2023-07-02T10:41:44;96864.75;;;19.12;64.84
73106;BME280;61559;50.476;15.588;2023-07-02T10:44:15;96862.34;;;19.22;63.25
73106;BME280;61559;50.476;15.588;2023-07-02T10:46:48;96859.09;;;19.32;62.89
73106;BME280;61559;50.476;15.588;2023-07-02T10:49:29;96865.48;;;19.41;63.07
73106;BME280;61559;50.476;15.588;2023-07-02T10:52:01;96868.16;;;19.46;62.22
73106;BME280;61559;50.476;15.588;2023-07-02T10:54:44;96861.88;;;19.46;61.67
73106;BME280;61559;50.476;15.588;2023-07-02T10:57:30;96861.95;;;19.53;61.27
73106;BME280;61559;50.476;15.588;2023-07-02T11:00:07;96853.91;;;19.67;61.17
73106;BME280;61559;50.476;15.588;2023-07-02T11:02:38;96857.62;;;19.85;59.64
73106;BME280;61559;50.476;15.588;2023-07-02T11:05:10;96850.48;;;20.01;57.75
73106;BME280;61559;50.476;15.588;2023-07-02T11:07:43;96852.58;;;20.13;57.41
73106;BME280;61559;50.476;15.588;2023-07-02T11:10:20;96848.67;;;20.25;58.67
73106;BME280;61559;50.476;15.588;2023-07-02T11:12:51;96846.14;;;20.35;56.60
73106;BME280;61559;50.476;15.588;2023-07-02T11:15:23;96842.52;;;20.45;57.29
73106;BME280;61559;50.476;15.588;2023-07-02T11:18:13;96849.58;;;20.57;57.08
73106;BME280;61559;50.476;15.588;2023-07-02T11:21:29;96841.84;;;20.70;55.56
73106;BME280;61559;50.476;15.588;2023-07-02T11:24:09;96842.38;;;20.83;54.38
73106;BME280;61559;50.476;15.588;2023-07-02T11:26:41;96832.73;;;20.97;53.84
73106;BME280;61559;50.476;15.588;2023-07-02T11:29:17;96842.91;;;21.11;52.44
73106;BME280;61559;50.476;15.588;2023-07-02T11:31:49;96842.33;;;21.24;51.91
73106;BME280;61559;50.476;15.588;2023-07-02T11:34:22;96848.73;;;21.35;52.02
73106;BME280;61559;50.476;15.588;2023-07-02T11:36:54;96841.16;;;21.42;52.47
73106;BME280;61559;50.476;15.588;2023-07-02T11:39:26;96841.98;;;21.43;52.63
73106;BME280;61559;50.476;15.588;2023-07-02T11:41:57;96843.85;;;21.49;51.94
73106;BME280;61559;50.476;15.588;2023-07-02T11:44:29;96850.66;;;21.49;51.16
73106;BME280;61559;50.476;15.588;2023-07-02T11:47:02;96846.30;;;21.50;51.47
73106;BME280;61559;50.476;15.588;2023-07-02T11:49:35;96843.65;;;21.58;51.37
73106;BME280;61559;50.476;15.588;2023-07-02T11:52:07;96846.52;;;21.67;50.82
73106;BME280;61559;50.476;15.588;2023-07-02T11:54:39;96847.63;;;21.73;49.53
73106;BME280;61559;50.476;15.588;2023-07-02T11:57:11;96845.89;;;21.86;49.52
73106;BME280;61559;50.476;15.588;2023-07-02T11:59:43;96851.11;;;21.98;48.48
73106;BME280;61559;50.476;15.588;2023-07-02T12:02:14;96854.32;;;22.06;47.60
73106;BME280;61559;50.476;15.588;2023-07-02T12:04:46;96846.61;;;22.10;48.51
73106;BME280;61559;50.476;15.588;2023-07-02T12:07:17;96841.05;;;22.21;49.39
73106;BME280;61559;50.476;15.588;2023-07-02T12:09:49;96841.17;;;22.39;49.20
73106;BME280;61559;50.476;15.588;2023-07-02T12:12:20;96837.63;;;22.48;47.72
73106;BME280;61559;50.476;15.588;2023-07-02T12:14:52;96833.94;;;22.57;47.17
73106;BME280;61559;50.476;15.588;2023-07-02T12:17:23;96840.70;;;22.61;46.56
73106;BME280;61559;50.476;15.588;2023-07-02T12:19:54;96834.05;;;22.64;45.48
73106;BME280;61559;50.476;15.588;2023-07-02T12:22:27;96832.40;;;22.68;44.80
73106;BME280;61559;50.476;15.588;2023-07-02T12:24:58;96832.24;;;22.78;44.67
73106;BME280;61559;50.476;15.588;2023-07-02T12:27:30;96831.15;;;22.86;44.64
73106;BME280;61559;50.476;15.588;2023-07-02T12:30:02;96833.23;;;22.91;43.83
73106;BME280;61559;50.476;15.588;2023-07-02T12:32:33;96829.23;;;22.92;43.34
73106;BME280;61559;50.476;15.588;2023-07-02T12:35:06;96824.48;;;22.97;43.47
73106;BME280;61559;50.476;15.588;2023-07-02T12:37:44;96827.38;;;23.00;43.59
73106;BME280;61559;50.476;15.588;2023-07-02T12:40:16;96835.00;;;22.88;43.90
73106;BME280;61559;50.476;15.588;2023-07-02T12:42:48;96836.70;;;22.75;44.62
73106;BME280;61559;50.476;15.588;2023-07-02T12:45:20;96839.67;;;22.64;45.29
73106;BME280;61559;50.476;15.588;2023-07-02T12:47:52;96848.63;;;22.54;45.65
73106;BME280;61559;50.476;15.588;2023-07-02T12:50:23;96852.73;;;22.47;45.38
73106;BME280;61559;50.476;15.588;2023-07-02T12:52:54;96856.11;;;22.38;45.16
73106;BME280;61559;50.476;15.588;2023-07-02T12:55:27;96849.04;;;22.34;45.28
73106;BME280;61559;50.476;15.588;2023-07-02T12:57:58;96847.77;;;22.34;45.49
73106;BME280;61559;50.476;15.588;2023-07-02T13:00:30;96848.72;;;22.40;46.28
73106;BME280;61559;50.476;15.588;2023-07-02T13:03:01;96847.67;;;22.49;45.44
73106;BME280;61559;50.476;15.588;2023-07-02T13:05:34;96852.60;;;22.62;45.95
73106;BME280;61559;50.476;15.588;2023-07-02T13:08:06;96851.28;;;22.74;44.01
73106;BME280;61559;50.476;15.588;2023-07-02T13:10:38;96851.95;;;22.84;44.36
73106;BME280;61559;50.476;15.588;2023-07-02T13:13:11;96854.48;;;23.02;44.01
73106;BME280;61559;50.476;15.588;2023-07-02T13:15:52;96853.27;;;23.19;43.29
73106;BME280;61559;50.476;15.588;2023-07-02T13:18:24;96858.14;;;23.24;42.89